createdAt,value
2018-05-17T00:00:56.716Z,59.40
2018-05-17T00:03:24.566Z,59.40
2018-05-17T00:05:52.432Z,59.50
2018-05-17T00:08:21.084Z,59.50
2018-05-17T00:10:48.955Z,59.50
2018-05-17T00:13:16.825Z,59.50
2018-05-17T00:15:49.798Z,59.60
2018-05-17T00:18:17.743Z,59.60
2018-05-17T00:20:45.670Z,59.60
2018-05-17T00:23:14.301Z,59.70
2018-05-17T00:25:42.195Z,59.60
2018-05-17T00:28:10.116Z,59.70
2018-05-17T00:30:38.018Z,59.70
2018-05-17T00:33:05.925Z,59.70
2018-05-17T00:35:34.603Z,59.80
2018-05-17T00:38:03.203Z,60.60
2018-05-17T00:40:31.059Z,59.80
2018-05-17T00:42:59.731Z,59.90
2018-05-17T00:45:28.449Z,60.70
2018-05-17T00:47:56.299Z,60.00
2018-05-17T00:50:24.181Z,60.00
2018-05-17T00:53:03.752Z,60.00
2018-05-17T00:55:31.621Z,60.00
2018-05-17T00:58:00.274Z,60.00
2018-05-17T01:00:28.146Z,60.00
2018-05-17T01:02:55.997Z,59.90
2018-05-17T01:05:23.913Z,59.90
2018-05-17T01:07:51.762Z,59.90
2018-05-17T01:10:19.661Z,59.80
2018-05-17T01:12:47.540Z,59.80
2018-05-17T01:15:16.856Z,59.90
2018-05-17T01:17:45.467Z,59.90
2018-05-17T01:20:13.304Z,59.90
2018-05-17T01:22:41.930Z,59.90
2018-05-17T01:25:09.878Z,59.90
2018-05-17T01:27:37.789Z,59.90
2018-05-17T01:30:05.731Z,59.90
2018-05-17T01:32:33.602Z,59.90
2018-05-17T01:35:01.584Z,59.90
2018-05-17T01:37:41.213Z,59.90
2018-05-17T01:40:09.135Z,59.90
2018-05-17T01:42:37.790Z,59.80
2018-05-17T01:45:05.764Z,59.80
2018-05-17T01:47:33.614Z,59.80
2018-05-17T01:50:01.508Z,59.70
2018-05-17T01:52:29.437Z,59.80
2018-05-17T01:54:57.399Z,59.80
2018-05-17T01:57:25.268Z,59.80
2018-05-17T01:59:53.213Z,59.80
2018-05-17T02:02:22.058Z,59.90
2018-05-17T02:04:49.956Z,59.90
2018-05-17T02:07:17.885Z,59.80
2018-05-17T02:09:45.713Z,59.90
2018-05-17T02:12:13.583Z,59.90
2018-05-17T02:14:41.509Z,60.00
2018-05-17T02:17:10.188Z,60.20
2018-05-17T02:19:38.117Z,60.20
2018-05-17T02:22:06.067Z,60.20
2018-05-17T02:24:33.926Z,60.20
2018-05-17T02:27:01.809Z,60.30
2018-05-17T02:29:29.701Z,60.30
2018-05-17T02:31:57.592Z,60.40
2018-05-17T02:34:26.251Z,61.30
2018-05-17T02:36:54.151Z,60.50
2018-05-17T02:39:22.841Z,60.50
2018-05-17T02:41:51.435Z,60.60
2018-05-17T02:44:19.397Z,60.60
2018-05-17T02:46:48.063Z,60.70
2018-05-17T02:49:16.068Z,60.60
2018-05-17T02:51:43.962Z,60.70
2018-05-17T02:54:11.850Z,60.80
2018-05-17T02:56:39.713Z,60.80
2018-05-17T02:59:07.610Z,60.80
2018-05-17T03:01:36.267Z,60.80
2018-05-17T03:04:04.137Z,60.80
2018-05-17T03:06:32.077Z,60.90
2018-05-17T03:08:59.929Z,61.00
2018-05-17T03:11:27.815Z,61.10
2018-05-17T03:13:55.732Z,61.10
2018-05-17T03:16:24.452Z,61.10
2018-05-17T03:18:52.306Z,61.10
2018-05-17T03:21:20.256Z,61.10
2018-05-17T03:23:48.979Z,60.90
2018-05-17T03:26:16.936Z,60.90
2018-05-17T03:28:44.783Z,60.80
2018-05-17T03:31:13.429Z,60.80
2018-05-17T03:33:41.293Z,60.80
2018-05-17T03:36:09.160Z,60.90
2018-05-17T03:38:37.038Z,60.90
2018-05-17T03:41:04.997Z,60.90
2018-05-17T03:43:32.948Z,60.90
2018-05-17T03:46:00.796Z,61.00
2018-05-17T03:48:28.735Z,61.00
2018-05-17T03:50:57.387Z,61.20
2018-05-17T03:53:25.262Z,61.20
2018-05-17T03:55:53.105Z,61.30
2018-05-17T03:58:21.036Z,62.10
2018-05-17T04:01:00.747Z,61.40
2018-05-17T04:03:40.893Z,61.50
2018-05-17T04:06:21.221Z,61.40
2018-05-17T04:08:49.115Z,61.40
2018-05-17T04:11:17.033Z,61.40
2018-05-17T04:13:44.936Z,61.40
2018-05-17T04:16:12.826Z,61.40
2018-05-17T04:18:40.670Z,61.60
2018-05-17T04:21:08.529Z,61.50
2018-05-17T04:23:36.373Z,61.50
2018-05-17T04:26:04.272Z,61.70
2018-05-17T04:28:32.223Z,61.60
2018-05-17T04:31:00.188Z,61.60
2018-05-17T04:33:28.043Z,61.80
2018-05-17T04:35:55.892Z,61.70
2018-05-17T04:38:23.733Z,61.80
2018-05-17T04:40:51.679Z,62.50
2018-05-17T04:43:19.585Z,61.70
2018-05-17T04:45:48.237Z,61.60
2018-05-17T04:48:16.187Z,61.60
2018-05-17T04:50:44.098Z,61.60
2018-05-17T04:53:12.780Z,61.50
2018-05-17T04:55:40.732Z,61.60
2018-05-17T04:58:08.621Z,61.50
2018-05-17T05:00:37.249Z,61.40
2018-05-17T05:03:05.134Z,61.30
2018-05-17T05:05:33.002Z,61.20
2018-05-17T05:08:00.895Z,61.30
2018-05-17T05:10:29.600Z,61.30
2018-05-17T05:12:58.219Z,61.10
2018-05-17T05:15:26.084Z,61.20
2018-05-17T05:17:53.928Z,61.10
2018-05-17T05:20:21.917Z,61.20
2018-05-17T05:22:49.865Z,61.20
2018-05-17T05:25:17.741Z,61.10
2018-05-17T05:27:45.688Z,61.00
2018-05-17T05:30:14.304Z,61.00
2018-05-17T05:32:42.267Z,61.00
2018-05-17T05:35:10.177Z,60.90
2018-05-17T05:37:38.085Z,60.60
2018-05-17T05:40:05.963Z,60.60
2018-05-17T05:42:33.808Z,60.40
2018-05-17T05:45:02.515Z,60.50
2018-05-17T05:47:30.449Z,60.50
2018-05-17T05:49:58.403Z,60.50
2018-05-17T05:52:26.370Z,60.50
2018-05-17T05:54:54.173Z,60.30
2018-05-17T05:57:22.782Z,60.00
2018-05-17T05:59:50.696Z,59.90
2018-05-17T06:02:18.536Z,60.00
2018-05-17T06:04:46.496Z,60.00
2018-05-17T06:07:15.151Z,59.80
2018-05-17T06:09:42.999Z,59.70
2018-05-17T06:12:11.579Z,59.60
2018-05-17T06:14:40.208Z,59.60
2018-05-17T06:17:08.145Z,59.60
2018-05-17T06:19:36.861Z,59.70
2018-05-17T06:22:05.571Z,59.80
2018-05-17T06:24:33.399Z,59.60
2018-05-17T06:27:01.262Z,59.50
2018-05-17T06:29:30.548Z,59.50
2018-05-17T06:31:59.183Z,59.30
2018-05-17T06:34:27.863Z,59.10
2018-05-17T06:36:55.814Z,59.10
2018-05-17T06:39:23.696Z,59.00
2018-05-17T06:41:51.576Z,59.00
2018-05-17T06:44:19.437Z,58.90
2018-05-17T06:46:47.284Z,58.80
2018-05-17T06:49:15.236Z,58.70
2018-05-17T06:51:43.211Z,58.50
2018-05-17T06:54:11.090Z,58.20
2018-05-17T06:56:39.017Z,58.10
2018-05-17T06:59:07.746Z,58.10
2018-05-17T07:01:35.623Z,58.20
2018-05-17T07:04:03.522Z,57.80
2018-05-17T07:06:32.193Z,57.60
2018-05-17T07:09:00.135Z,57.60
2018-05-17T07:11:28.033Z,57.50
2018-05-17T07:13:55.912Z,57.40
2018-05-17T07:16:23.764Z,57.20
2018-05-17T07:18:51.683Z,57.10
2018-05-17T07:21:19.629Z,56.90
2018-05-17T07:23:48.347Z,56.50
2018-05-17T07:26:16.689Z,56.50
2018-05-17T07:28:45.411Z,56.50
2018-05-17T07:31:13.307Z,56.50
2018-05-17T07:33:41.217Z,56.30
2018-05-17T07:36:12.229Z,56.30
2018-05-17T07:38:40.167Z,56.20
2018-05-17T07:41:08.779Z,56.20
2018-05-17T07:43:37.496Z,56.10
2018-05-17T07:46:06.176Z,56.00
2018-05-17T07:48:34.789Z,56.10
2018-05-17T07:51:02.660Z,56.10
2018-05-17T07:53:30.543Z,56.20
2018-05-17T07:55:58.837Z,55.90
2018-05-17T07:58:26.709Z,55.80
2018-05-17T08:00:54.525Z,55.70
2018-05-17T08:03:22.434Z,55.60
2018-05-17T08:06:00.198Z,55.50
2018-05-17T08:08:28.077Z,55.40
2018-05-17T08:10:55.946Z,55.50
2018-05-17T08:13:24.571Z,55.60
2018-05-17T08:15:52.404Z,55.60
2018-05-17T08:18:20.305Z,55.60
2018-05-17T08:20:48.156Z,55.50
2018-05-17T08:23:16.065Z,55.50
2018-05-17T08:25:44.023Z,55.50
2018-05-17T08:28:12.682Z,55.40
2018-05-17T08:30:40.555Z,55.40
2018-05-17T08:33:08.439Z,55.20
2018-05-17T08:35:37.128Z,55.10
2018-05-17T08:38:05.143Z,55.10
2018-05-17T08:40:32.985Z,55.10
2018-05-17T08:43:00.820Z,55.00
2018-05-17T08:45:29.440Z,55.00
2018-05-17T08:47:57.281Z,54.90
2018-05-17T08:50:25.932Z,55.00
2018-05-17T08:52:53.907Z,55.00
2018-05-17T08:55:21.832Z,55.00
2018-05-17T08:57:49.695Z,54.80
2018-05-17T09:00:17.540Z,54.70
2018-05-17T09:02:45.542Z,54.50
2018-05-17T09:05:13.417Z,54.50
2018-05-17T09:07:41.281Z,54.40
2018-05-17T09:10:09.173Z,54.30
2018-05-17T09:12:37.083Z,54.20
2018-05-17T09:15:05.039Z,53.90
2018-05-17T09:17:33.641Z,53.50
2018-05-17T09:20:01.666Z,53.40
2018-05-17T09:22:29.537Z,53.10
2018-05-17T09:24:57.416Z,53.20
2018-05-17T09:27:26.042Z,53.40
2018-05-17T09:29:53.976Z,53.30
2018-05-17T09:32:22.607Z,52.50
2018-05-17T09:34:50.489Z,52.50
2018-05-17T09:37:18.375Z,52.00
2018-05-17T09:39:46.249Z,51.70
2018-05-17T09:42:14.876Z,51.00
2018-05-17T09:44:42.778Z,51.00
2018-05-17T09:47:10.639Z,51.10
2018-05-17T09:49:38.515Z,50.90
2018-05-17T09:52:06.432Z,50.90
2018-05-17T09:54:34.367Z,50.40
2018-05-17T09:57:03.000Z,49.70
2018-05-17T09:59:30.925Z,49.60
2018-05-17T10:01:59.612Z,49.50
2018-05-17T10:04:28.264Z,49.50
2018-05-17T10:06:56.205Z,49.50
2018-05-17T10:09:24.041Z,49.40
2018-05-17T10:11:52.748Z,49.40
2018-05-17T10:14:20.604Z,49.30
2018-05-17T10:16:48.490Z,49.20
2018-05-17T10:19:16.408Z,49.20
2018-05-17T10:21:53.653Z,49.30
2018-05-17T10:24:21.663Z,50.10
2018-05-17T10:26:49.588Z,49.70
2018-05-17T10:29:17.441Z,49.80
2018-05-17T10:31:45.285Z,50.00
2018-05-17T10:34:13.992Z,49.50
2018-05-17T10:36:41.974Z,49.50
2018-05-17T10:39:09.853Z,49.10
2018-05-17T10:41:37.744Z,48.80
2018-05-17T10:44:05.616Z,48.80
2018-05-17T10:46:33.464Z,48.70
2018-05-17T10:49:01.389Z,48.70
2018-05-17T10:51:29.406Z,48.20
2018-05-17T10:53:57.298Z,47.90
2018-05-17T10:56:25.948Z,47.80
2018-05-17T10:58:53.911Z,47.70
2018-05-17T11:01:21.734Z,47.50
2018-05-17T11:03:49.623Z,46.90
2018-05-17T11:06:17.517Z,46.30
2018-05-17T11:08:45.421Z,46.10
2018-05-17T11:11:14.105Z,45.60
2018-05-17T11:13:42.701Z,45.00
2018-05-17T11:16:10.595Z,45.00
2018-05-17T11:18:38.949Z,44.70
2018-05-17T11:21:06.796Z,44.70
2018-05-17T11:23:35.419Z,44.50
2018-05-17T11:26:03.353Z,44.40
2018-05-17T11:28:31.282Z,43.70
2018-05-17T11:30:59.156Z,43.20
2018-05-17T11:33:27.025Z,43.20
2018-05-17T11:35:54.946Z,43.00
2018-05-17T11:38:22.784Z,43.00
2018-05-17T11:40:51.402Z,41.80
2018-05-17T11:43:19.274Z,41.80
2018-05-17T11:45:47.116Z,41.60
2018-05-17T11:48:15.751Z,41.50
2018-05-17T11:50:43.678Z,41.40
2018-05-17T11:53:11.520Z,41.20
2018-05-17T11:55:40.128Z,40.90
2018-05-17T11:58:08.005Z,40.90
2018-05-17T12:00:35.852Z,40.70
2018-05-17T12:03:04.569Z,40.10
2018-05-17T12:05:32.398Z,40.10
2018-05-17T12:08:01.021Z,39.40
2018-05-17T12:10:28.879Z,39.40
2018-05-17T12:12:56.789Z,39.10
2018-05-17T12:15:24.708Z,38.90
2018-05-17T12:17:52.617Z,38.50
2018-05-17T12:20:20.514Z,38.40
2018-05-17T12:22:49.112Z,38.20
2018-05-17T12:25:17.048Z,38.20
2018-05-17T12:27:44.894Z,38.30
2018-05-17T12:30:12.737Z,38.20
2018-05-17T12:32:40.619Z,38.10
2018-05-17T12:35:08.549Z,38.20
2018-05-17T12:37:36.445Z,38.10
2018-05-17T12:40:04.454Z,38.90
2018-05-17T12:42:32.337Z,38.30
2018-05-17T12:45:01.004Z,38.40
2018-05-17T12:47:30.083Z,38.40
2018-05-17T12:49:57.959Z,38.40
2018-05-17T12:52:26.840Z,38.70
2018-05-17T12:54:55.603Z,38.90
2018-05-17T12:57:24.303Z,39.00
2018-05-17T12:59:52.288Z,39.00
2018-05-17T13:02:20.140Z,39.20
2018-05-17T13:04:48.068Z,39.10
2018-05-17T13:07:15.943Z,39.20
2018-05-17T13:09:43.757Z,39.40
2018-05-17T13:12:11.610Z,39.70
2018-05-17T13:14:39.588Z,39.90
2018-05-17T13:17:07.449Z,40.20
2018-05-17T13:19:35.376Z,40.60
2018-05-17T13:22:03.233Z,40.80
2018-05-17T13:24:31.105Z,40.90
2018-05-17T13:26:59.026Z,41.20
2018-05-17T13:29:26.911Z,41.40
2018-05-17T13:31:55.536Z,42.00
2018-05-17T13:34:23.393Z,42.00
2018-05-17T13:36:51.381Z,42.10
2018-05-17T13:39:19.239Z,42.30
2018-05-17T13:41:47.195Z,42.40
2018-05-17T13:44:15.124Z,42.70
2018-05-17T13:46:43.021Z,42.50
2018-05-17T13:49:10.996Z,42.70
2018-05-17T13:51:38.883Z,43.40
2018-05-17T13:54:06.832Z,42.90
2018-05-17T13:56:34.697Z,43.20
2018-05-17T13:59:02.565Z,43.30
2018-05-17T14:01:30.422Z,43.10
2018-05-17T14:03:58.367Z,42.80
2018-05-17T14:06:26.215Z,42.80
2018-05-17T14:08:54.089Z,42.90
2018-05-17T14:11:22.005Z,42.90
2018-05-17T14:13:49.930Z,43.00
2018-05-17T14:16:17.782Z,43.10
2018-05-17T14:18:46.760Z,43.20
2018-05-17T14:21:14.641Z,43.20
2018-05-17T14:23:42.586Z,43.30
2018-05-17T14:26:10.420Z,43.40
2018-05-17T14:28:38.253Z,43.50
2018-05-17T14:31:06.135Z,43.50
2018-05-17T14:33:34.829Z,43.60
2018-05-17T14:36:03.522Z,43.60
2018-05-17T14:38:32.244Z,43.70
2018-05-17T14:41:00.119Z,43.60
2018-05-17T14:43:27.965Z,43.70
2018-05-17T14:45:55.916Z,43.60
2018-05-17T14:48:23.862Z,43.70
2018-05-17T14:50:52.524Z,43.50
2018-05-17T14:53:20.400Z,43.40
2018-05-17T14:55:49.313Z,43.60
2018-05-17T14:58:17.313Z,43.60
2018-05-17T15:00:45.173Z,43.70
2018-05-17T15:03:13.984Z,44.00
2018-05-17T15:05:41.945Z,44.40
2018-05-17T15:08:09.782Z,44.90
2018-05-17T15:10:37.721Z,45.30
2018-05-17T15:13:05.691Z,45.50
2018-05-17T15:15:33.679Z,46.70
2018-05-17T15:18:02.260Z,46.50
2018-05-17T15:20:30.901Z,46.80
2018-05-17T15:22:58.824Z,46.70
2018-05-17T15:25:26.744Z,47.00
2018-05-17T15:27:54.648Z,47.40
2018-05-17T15:30:23.269Z,48.60
2018-05-17T15:32:51.170Z,48.00
2018-05-17T15:35:19.080Z,48.30
2018-05-17T15:37:46.961Z,48.50
2018-05-17T15:40:14.843Z,48.80
2018-05-17T15:42:42.788Z,48.90
2018-05-17T15:45:10.647Z,49.20
2018-05-17T15:47:38.516Z,49.40
2018-05-17T15:50:06.363Z,49.70
2018-05-17T15:52:34.995Z,50.20
2018-05-17T15:55:02.834Z,50.20
2018-05-17T15:57:30.709Z,50.30
2018-05-17T15:59:58.620Z,50.40
2018-05-17T16:02:26.580Z,50.60
2018-05-17T16:04:54.437Z,50.80
2018-05-17T16:07:22.434Z,51.00
2018-05-17T16:09:50.381Z,51.10
2018-05-17T16:12:18.241Z,51.40
2018-05-17T16:14:46.253Z,51.60
2018-05-17T16:17:14.208Z,51.80
2018-05-17T16:19:42.139Z,51.90
2018-05-17T16:22:09.996Z,52.10
2018-05-17T16:24:37.860Z,52.30
2018-05-17T16:27:05.831Z,52.50
2018-05-17T16:29:33.706Z,52.60
2018-05-17T16:32:01.584Z,52.80
2018-05-17T16:34:29.488Z,52.90
2018-05-17T16:36:58.123Z,53.40
2018-05-17T16:39:26.076Z,53.30
2018-05-17T16:41:53.901Z,53.60
2018-05-17T16:44:21.850Z,53.90
2018-05-17T16:46:49.784Z,54.80
2018-05-17T16:49:17.653Z,54.40
2018-05-17T16:51:45.565Z,54.60
2018-05-17T16:54:13.487Z,54.90
2018-05-17T16:56:41.335Z,55.10
2018-05-17T16:59:09.211Z,55.40
2018-05-17T17:01:37.121Z,55.50
2018-05-17T17:04:06.527Z,55.70
2018-05-17T17:06:34.470Z,56.30
2018-05-17T17:09:02.332Z,55.80
2018-05-17T17:11:30.253Z,55.80
2018-05-17T17:13:58.891Z,56.00
2018-05-17T17:16:26.790Z,56.00
2018-05-17T17:18:55.158Z,56.10
2018-05-17T17:21:23.028Z,56.10
2018-05-17T17:23:50.988Z,56.20
2018-05-17T17:26:18.857Z,56.10
2018-05-17T17:28:46.680Z,56.10
2018-05-17T17:31:14.657Z,56.10
2018-05-17T17:33:42.525Z,56.20
2018-05-17T17:36:10.380Z,56.30
2018-05-17T17:38:38.242Z,56.30
2018-05-17T17:41:06.084Z,56.40
2018-05-17T17:43:34.768Z,56.50
2018-05-17T17:46:03.455Z,56.50
2018-05-17T17:48:32.090Z,56.60
2018-05-17T17:51:01.105Z,56.50
2018-05-17T17:53:29.059Z,56.50
2018-05-17T17:55:56.940Z,56.60
2018-05-17T17:58:24.807Z,56.70
2018-05-17T18:00:53.465Z,56.90
2018-05-17T18:03:21.345Z,56.80
2018-05-17T18:05:49.207Z,57.00
2018-05-17T18:08:17.068Z,57.00
2018-05-17T18:10:44.967Z,57.10
2018-05-17T18:13:12.949Z,57.10
2018-05-17T18:15:40.890Z,57.20
2018-05-17T18:18:08.740Z,57.20
2018-05-17T18:20:36.568Z,57.20
2018-05-17T18:23:04.508Z,57.20
2018-05-17T18:25:32.444Z,57.20
2018-05-17T18:28:00.386Z,57.20
2018-05-17T18:30:28.220Z,57.30
2018-05-17T18:32:56.139Z,57.40
2018-05-17T18:35:24.094Z,57.40
2018-05-17T18:37:52.055Z,57.40
2018-05-17T18:40:19.954Z,57.50
2018-05-17T18:42:47.862Z,57.50
2018-05-17T18:45:16.460Z,57.70
2018-05-17T18:47:45.144Z,57.80
2018-05-17T18:50:13.753Z,57.90
2018-05-17T18:52:41.637Z,57.80
2018-05-17T18:55:09.620Z,58.00
2018-05-17T18:57:37.493Z,57.90
2018-05-17T19:00:06.353Z,58.00
2018-05-17T19:02:34.213Z,58.10
2018-05-17T19:05:02.186Z,58.20
2018-05-17T19:07:30.020Z,58.30
2018-05-17T19:09:58.775Z,58.50
2018-05-17T19:12:26.708Z,58.50
2018-05-17T19:14:54.662Z,58.60
2018-05-17T19:17:22.622Z,58.60
2018-05-17T19:19:50.506Z,58.70
2018-05-17T19:22:18.353Z,58.80
2018-05-17T19:24:46.254Z,58.90
2018-05-17T19:27:14.225Z,58.90
2018-05-17T19:29:42.124Z,59.00
2018-05-17T19:32:10.150Z,59.10
2018-05-17T19:34:38.099Z,59.10
2018-05-17T19:37:06.161Z,59.10
2018-05-17T19:39:34.043Z,59.10
2018-05-17T19:42:01.919Z,59.10
2018-05-17T19:44:29.871Z,59.20
2018-05-17T19:46:57.875Z,59.20
2018-05-17T19:49:25.753Z,59.30
2018-05-17T19:52:07.426Z,59.40
2018-05-17T19:54:35.391Z,59.40
2018-05-17T19:57:03.333Z,59.40
2018-05-17T19:59:31.394Z,59.50
2018-05-17T20:02:00.100Z,59.60
2018-05-17T20:04:35.364Z,59.60
2018-05-17T20:07:03.876Z,59.60
2018-05-17T20:09:31.814Z,59.70
2018-05-17T20:11:59.684Z,59.70
2018-05-17T20:14:27.608Z,59.70
2018-05-17T20:16:56.287Z,59.90
2018-05-17T20:19:24.964Z,60.00
2018-05-17T20:21:52.941Z,59.90
2018-05-17T20:24:21.576Z,60.10
2018-05-17T20:26:51.328Z,60.10
2018-05-17T20:29:19.991Z,60.30
2018-05-17T20:31:47.793Z,60.30
2018-05-17T20:34:16.504Z,60.50
2018-05-17T20:36:44.464Z,60.50
2018-05-17T20:39:12.385Z,60.50
2018-05-17T20:41:41.104Z,60.60
2018-05-17T20:44:09.743Z,60.80
2018-05-17T20:46:37.617Z,60.80
2018-05-17T20:49:05.476Z,60.90
2018-05-17T20:51:33.444Z,60.90
2018-05-17T20:54:01.308Z,61.00
2018-05-17T20:56:29.173Z,60.90
2018-05-17T20:58:57.117Z,61.00
2018-05-17T21:01:25.012Z,61.20
2018-05-17T21:03:52.904Z,61.20
2018-05-17T21:06:20.776Z,61.10
2018-05-17T21:08:49.398Z,61.40
2018-05-17T21:11:17.312Z,61.40
2018-05-17T21:13:45.135Z,61.40
2018-05-17T21:16:13.057Z,61.60
2018-05-17T21:18:40.946Z,61.70
2018-05-17T21:21:08.857Z,61.80
2018-05-17T21:23:36.696Z,61.80
2018-05-17T21:26:04.580Z,61.90
2018-05-17T21:28:32.446Z,62.00
2018-05-17T21:31:00.300Z,62.10
2018-05-17T21:33:28.172Z,62.10
2018-05-17T21:35:56.065Z,62.10
2018-05-17T21:38:23.892Z,62.10
2018-05-17T21:40:51.796Z,62.20
2018-05-17T21:43:19.664Z,62.20
2018-05-17T21:45:47.646Z,62.30
2018-05-17T21:48:15.512Z,62.20
2018-05-17T21:50:43.468Z,62.30
2018-05-17T21:53:11.407Z,62.50
2018-05-17T21:55:39.259Z,62.50
2018-05-17T21:58:07.108Z,62.60
2018-05-17T22:00:35.777Z,62.70
2018-05-17T22:03:03.722Z,62.60
2018-05-17T22:05:31.659Z,62.70
2018-05-17T22:07:59.539Z,62.80
2018-05-17T22:10:27.388Z,62.80
2018-05-17T22:12:55.261Z,62.90
2018-05-17T22:15:23.130Z,63.00
2018-05-17T22:17:51.177Z,63.10
2018-05-17T22:20:19.144Z,63.10
2018-05-17T22:22:47.124Z,63.20
2018-05-17T22:25:15.091Z,63.20
2018-05-17T22:27:43.020Z,63.30
2018-05-17T22:30:10.915Z,63.30
2018-05-17T22:32:39.550Z,63.40
2018-05-17T22:35:07.389Z,63.40
2018-05-17T22:37:35.330Z,63.50
2018-05-17T22:40:03.943Z,63.60
2018-05-17T22:42:31.886Z,63.50
2018-05-17T22:44:59.750Z,63.60
2018-05-17T22:47:27.687Z,63.70
2018-05-17T22:49:55.612Z,63.80
2018-05-17T22:52:23.513Z,63.70
2018-05-17T22:54:51.429Z,63.70
2018-05-17T22:57:31.147Z,63.60
2018-05-17T22:59:59.075Z,63.60
2018-05-17T23:02:26.984Z,63.60
2018-05-17T23:04:55.624Z,63.90
2018-05-17T23:07:23.455Z,63.80
2018-05-17T23:09:51.343Z,63.90
2018-05-17T23:12:20.177Z,63.90
2018-05-17T23:14:48.103Z,63.90
2018-05-17T23:17:15.981Z,64.00
2018-05-17T23:19:44.012Z,64.00
2018-05-17T23:25:11.889Z,64.10
2018-05-17T23:27:40.578Z,64.10
2018-05-17T23:30:09.168Z,64.20
2018-05-17T23:32:37.161Z,64.10
2018-05-17T23:35:05.185Z,64.10
2018-05-17T23:37:33.949Z,64.20
2018-05-17T23:40:13.897Z,64.20
2018-05-17T23:42:41.847Z,64.20
2018-05-17T23:45:09.857Z,64.00
2018-05-17T23:47:37.788Z,64.20
2018-05-17T23:50:05.809Z,64.20
2018-05-17T23:52:34.479Z,64.20
2018-05-17T23:55:02.415Z,64.20
2018-05-17T23:57:30.352Z,64.20
2018-05-17T23:59:58.357Z,64.30
